Time;durP1;ratioP1;P1;durP2;ratioP2;P2;SDS_P1;SDS_P2;PMS_P1;PMS_P2;Temp;Humidity;BMP_temperature;BMP_pressure;BME280_temperature;BME280_humidity;BME280_pressure;Samples;Min_cycle;Max_cycle;Signal;HPM_P1;HPM_P2
2022/10/19 00:01:51;;;;;;;1.23;0.35;;;10.10;99.90;;;;;;5023468;28;20037;-72
2022/10/19 00:04:17;;;;;;;0.15;0.10;;;10.10;99.90;;;;;;5025818;28;20057;-71
2022/10/19 00:06:43;;;;;;;0.57;0.30;;;10.10;99.90;;;;;;5021632;28;20388;-71
2022/10/19 00:09:13;;;;;;;0.52;0.20;;;10.10;99.90;;;;;;5024729;28;20136;-72
2022/10/19 00:11:41;;;;;;;0.60;0.20;;;10.00;99.90;;;;;;5037051;28;20049;-71
2022/10/19 00:14:08;;;;;;;0.82;0.28;;;10.00;99.90;;;;;;5005878;28;20030;-71
2022/10/19 00:16:36;;;;;;;6.20;0.28;;;10.00;99.90;;;;;;5002776;28;20083;-71
2022/10/19 00:19:05;;;;;;;0.38;0.13;;;10.00;99.90;;;;;;5014077;28;20033;-72
2022/10/19 00:21:31;;;;;;;0.10;0.10;;;10.00;99.90;;;;;;5021616;28;20043;-71
2022/10/19 00:23:56;;;;;;;0.52;0.17;;;10.00;99.90;;;;;;5017795;28;20041;-71
2022/10/19 00:26:22;;;;;;;0.15;0.10;;;9.90;99.90;;;;;;5018064;28;20733;-71
2022/10/19 00:28:47;;;;;;;0.75;0.50;;;9.90;99.90;;;;;;5019377;28;20120;-71
2022/10/19 00:31:16;;;;;;;0.57;0.20;;;9.90;99.90;;;;;;5016484;28;20041;-71
2022/10/19 00:33:47;;;;;;;2.72;0.30;;;9.80;99.90;;;;;;5019316;28;20495;-71
2022/10/19 00:36:20;;;;;;;0.30;0.20;;;9.80;99.90;;;;;;5008520;28;20447;-72
2022/10/19 00:38:46;;;;;;;0.43;0.10;;;9.80;99.90;;;;;;5001843;28;20064;-72
2022/10/19 00:41:12;;;;;;;0.10;0.10;;;9.90;99.90;;;;;;5018802;28;20518;-72
2022/10/19 00:43:59;;;;;;;1.05;0.22;;;9.90;99.90;;;;;;4999473;28;20042;-71
2022/10/19 00:46:27;;;;;;;0.60;0.30;;;9.90;99.90;;;;;;4999068;28;20041;-71
2022/10/19 00:48:57;;;;;;;0.50;0.25;;;10.00;99.90;;;;;;5016381;28;20029;-71
2022/10/19 00:51:25;;;;;;;1.63;0.60;;;10.00;99.90;;;;;;5013238;28;20563;-71
2022/10/19 00:53:51;;;;;;;0.17;0.10;;;10.00;99.90;;;;;;5016872;28;20402;-71
2022/10/19 00:56:17;;;;;;;3.20;0.52;;;10.00;99.90;;;;;;5015794;28;20033;-72
2022/10/19 00:58:43;;;;;;;0.73;0.40;;;10.10;99.90;;;;;;5019001;28;20053;-71
2022/10/19 01:01:13;;;;;;;0.10;0.10;;;10.10;99.90;;;;;;5017343;28;20331;-71
2022/10/19 01:03:38;;;;;;;0.98;0.45;;;10.20;99.90;;;;;;5017068;28;20096;-71
2022/10/19 01:06:05;;;;;;;0.50;0.30;;;10.20;99.90;;;;;;5012548;28;20046;-71
2022/10/19 01:08:30;;;;;;;0.40;0.20;;;10.20;99.90;;;;;;5012029;28;20100;-71
2022/10/19 01:11:14;;;;;;;0.57;0.40;;;10.20;99.90;;;;;;5016091;28;21859;-71
2022/10/19 01:14:13;;;;;;;0.45;0.20;;;10.20;99.90;;;;;;5018740;28;20406;-71
2022/10/19 01:17:08;;;;;;;0.17;0.17;;;10.20;99.90;;;;;;5013783;28;20065;-71
2022/10/19 01:19:56;;;;;;;0.60;0.23;;;10.20;99.90;;;;;;5017649;28;20051;-71
2022/10/19 01:22:38;;;;;;;0.88;0.40;;;10.20;99.90;;;;;;5016373;28;20611;-71
2022/10/19 01:25:26;;;;;;;0.75;0.47;;;10.20;99.90;;;;;;5006650;28;20056;-71
2022/10/19 01:28:36;;;;;;;0.73;0.40;;;10.30;99.90;;;;;;5001272;28;20033;-71
2022/10/19 01:31:44;;;;;;;2.05;0.50;;;10.30;99.90;;;;;;5016167;28;20127;-71
2022/10/19 01:34:34;;;;;;;0.82;0.50;;;10.30;99.90;;;;;;5015401;28;20389;-71
2022/10/19 01:37:11;;;;;;;7.68;0.60;;;10.40;99.90;;;;;;5016417;28;20073;-71
2022/10/19 01:39:55;;;;;;;3.38;0.77;;;10.40;99.90;;;;;;5015939;28;20037;-71
2022/10/19 01:42:24;;;;;;;0.75;0.30;;;10.40;99.90;;;;;;5017088;28;20048;-71
2022/10/19 01:45:11;;;;;;;0.73;0.30;;;10.50;99.90;;;;;;5015842;28;20041;-71
2022/10/19 01:47:54;;;;;;;1.42;0.40;;;10.50;99.90;;;;;;4994085;28;20099;-71
2022/10/19 01:50:39;;;;;;;0.93;0.60;;;10.50;99.90;;;;;;5014172;28;20218;-71
2022/10/19 01:53:08;;;;;;;6.88;0.45;;;10.40;99.90;;;;;;5019624;28;20365;-71
2022/10/19 01:55:36;;;;;;;0.43;0.20;;;10.40;99.90;;;;;;5014763;28;20376;-71
2022/10/19 01:58:06;;;;;;;0.93;0.40;;;10.40;99.90;;;;;;5018469;28;20045;-71
2022/10/19 02:00:34;;;;;;;0.73;0.40;;;10.40;99.90;;;;;;5015005;28;20046;-71
2022/10/19 02:03:02;;;;;;;0.68;0.28;;;10.40;99.90;;;;;;5016801;28;20038;-71
2022/10/19 02:05:31;;;;;;;2.38;0.40;;;10.50;99.90;;;;;;5017829;28;20693;-71
2022/10/19 02:08:13;;;;;;;0.68;0.38;;;10.50;99.90;;;;;;5013597;28;20049;-71
2022/10/19 02:10:41;;;;;;;0.93;0.45;;;10.50;99.90;;;;;;5009787;28;20050;-71
2022/10/19 02:13:10;;;;;;;0.60;0.40;;;10.50;99.90;;;;;;5022068;28;20106;-72
2022/10/19 02:15:39;;;;;;;1.70;0.52;;;10.50;99.90;;;;;;5012352;28;20037;-71
2022/10/19 02:18:06;;;;;;;0.85;0.43;;;10.40;99.90;;;;;;5000652;28;20044;-71
2022/10/19 02:20:34;;;;;;;0.35;0.20;;;10.50;99.90;;;;;;5015093;28;20160;-71
2022/10/19 02:23:01;;;;;;;1.02;0.80;;;10.50;99.90;;;;;;5016728;28;20483;-71
2022/10/19 02:25:27;;;;;;;1.27;0.65;;;10.40;99.90;;;;;;5016430;28;20559;-71
2022/10/19 02:27:53;;;;;;;7.03;0.60;;;10.40;99.90;;;;;;5017290;28;20045;-72
2022/10/19 02:30:20;;;;;;;2.22;0.40;;;10.40;99.90;;;;;;5034669;28;20037;-71
2022/10/19 02:32:46;;;;;;;4.50;0.47;;;10.50;99.90;;;;;;5014636;28;20383;-71
2022/10/19 02:35:13;;;;;;;1.42;0.50;;;10.50;99.90;;;;;;5015508;28;20036;-71
2022/10/19 02:37:39;;;;;;;0.75;0.52;;;10.40;99.90;;;;;;5018234;28;20068;-71
2022/10/19 02:40:06;;;;;;;1.67;0.52;;;10.40;99.90;;;;;;5020924;28;20553;-71
2022/10/19 02:42:38;;;;;;;3.60;1.00;;;10.40;99.90;;;;;;5015177;28;20521;-71
2022/10/19 02:45:22;;;;;;;0.47;0.28;;;10.40;99.90;;;;;;5019269;28;20049;-71
2022/10/19 02:47:54;;;;;;;3.20;0.35;;;10.50;99.90;;;;;;5018352;28;20167;-71
2022/10/19 02:50:20;;;;;;;1.85;0.60;;;10.40;99.90;;;;;;5023213;28;20045;-71
2022/10/19 02:52:47;;;;;;;2.40;0.45;;;10.40;99.90;;;;;;5020567;28;20037;-71
2022/10/19 02:55:12;;;;;;;1.13;0.50;;;10.50;99.90;;;;;;5015493;28;22260;-71
2022/10/19 02:57:38;;;;;;;1.45;0.57;;;10.40;99.90;;;;;;5022303;28;20045;-71
2022/10/19 03:00:05;;;;;;;0.68;0.43;;;10.50;99.90;;;;;;5020524;28;20086;-71
2022/10/19 03:02:31;;;;;;;0.65;0.30;;;10.50;99.90;;;;;;5017441;28;20047;-71
2022/10/19 03:04:57;;;;;;;3.08;0.65;;;10.50;99.90;;;;;;5018873;28;20106;-71
2022/10/19 03:07:23;;;;;;;1.48;0.50;;;10.50;99.90;;;;;;5017357;28;20124;-71
2022/10/19 03:09:48;;;;;;;1.50;0.60;;;10.50;99.90;;;;;;5013542;28;20541;-71
2022/10/19 03:12:14;;;;;;;0.75;0.50;;;10.50;99.90;;;;;;4998316;28;20029;-71
2022/10/19 03:14:41;;;;;;;2.60;0.75;;;10.40;99.90;;;;;;5017705;28;20495;-71
2022/10/19 03:17:06;;;;;;;3.90;0.50;;;10.40;99.90;;;;;;5020524;28;20048;-71
2022/10/19 03:19:34;;;;;;;2.67;0.50;;;10.40;99.90;;;;;;5021015;28;20045;-71
2022/10/19 03:22:00;;;;;;;0.85;0.43;;;10.40;99.90;;;;;;5018437;28;20042;-71
2022/10/19 03:24:26;;;;;;;1.20;0.68;;;10.40;99.90;;;;;;5019208;28;20702;-71
2022/10/19 03:26:51;;;;;;;1.65;0.60;;;10.40;99.90;;;;;;5005674;28;20033;-71
2022/10/19 03:29:17;;;;;;;2.42;0.65;;;10.40;99.90;;;;;;5019189;28;20041;-72
2022/10/19 03:31:42;;;;;;;0.85;0.47;;;10.40;99.90;;;;;;4996735;28;20276;-71
2022/10/19 03:34:08;;;;;;;0.40;0.30;;;10.40;99.90;;;;;;5020218;28;20029;-71
2022/10/19 03:36:36;;;;;;;5.28;0.68;;;10.40;99.90;;;;;;5002890;28;20462;-71
2022/10/19 03:39:06;;;;;;;0.50;0.32;;;10.40;99.90;;;;;;5021435;28;20053;-71
2022/10/19 03:41:33;;;;;;;3.78;0.47;;;10.30;99.90;;;;;;5021738;28;20568;-71
2022/10/19 03:43:59;;;;;;;3.08;0.55;;;10.40;99.90;;;;;;5012465;28;20469;-71
2022/10/19 03:46:25;;;;;;;1.17;0.50;;;10.40;99.90;;;;;;5015596;28;20044;-71
2022/10/19 03:48:52;;;;;;;0.82;0.40;;;10.30;99.90;;;;;;5020354;28;20084;-71
2022/10/19 03:51:20;;;;;;;0.82;0.60;;;10.30;99.90;;;;;;5022287;28;20062;-71
2022/10/19 03:53:46;;;;;;;2.80;0.38;;;10.30;99.90;;;;;;5024393;28;20490;-71
2022/10/19 03:56:18;;;;;;;0.50;0.40;;;10.40;99.90;;;;;;5022914;28;20124;-71
2022/10/19 03:58:45;;;;;;;4.38;0.60;;;10.30;99.90;;;;;;5024536;28;20041;-71
2022/10/19 04:01:18;;;;;;;0.82;0.30;;;10.30;99.90;;;;;;5023855;28;20049;-71
2022/10/19 04:03:43;;;;;;;0.95;0.70;;;10.30;99.90;;;;;;5022799;28;20052;-71
2022/10/19 04:06:15;;;;;;;0.68;0.38;;;10.30;99.90;;;;;;5022608;28;20045;-72
2022/10/19 04:08:41;;;;;;;0.68;0.30;;;10.20;99.90;;;;;;5024716;28;20761;-71
2022/10/19 04:11:11;;;;;;;3.33;0.52;;;10.20;99.90;;;;;;5023521;28;21529;-71
2022/10/19 04:13:37;;;;;;;1.27;0.65;;;10.20;99.90;;;;;;5020581;28;20120;-71
2022/10/19 04:16:02;;;;;;;0.77;0.45;;;10.20;99.90;;;;;;5021720;28;20037;-71
2022/10/19 04:18:28;;;;;;;0.77;0.43;;;10.10;99.90;;;;;;5025005;28;20033;-71
2022/10/19 04:21:04;;;;;;;3.50;0.50;;;10.10;99.90;;;;;;5008408;28;20041;-71
2022/10/19 04:23:32;;;;;;;1.70;0.52;;;10.10;99.90;;;;;;5022132;28;20041;-71
2022/10/19 04:26:06;;;;;;;2.03;0.40;;;10.10;99.90;;;;;;5021157;28;20214;-71
2022/10/19 04:28:32;;;;;;;0.55;0.22;;;10.10;99.90;;;;;;5024467;28;20513;-71
2022/10/19 04:31:01;;;;;;;1.55;0.50;;;10.10;99.90;;;;;;5011589;28;20042;-71
2022/10/19 04:33:27;;;;;;;0.65;0.22;;;10.10;99.90;;;;;;5023310;28;20056;-72
2022/10/19 04:36:00;;;;;;;1.77;0.52;;;10.10;99.90;;;;;;5008135;28;20037;-71
2022/10/19 04:38:27;;;;;;;0.77;0.32;;;10.00;99.90;;;;;;5023602;28;20053;-71
2022/10/19 04:40:53;;;;;;;2.15;0.60;;;10.00;99.90;;;;;;5007480;28;20607;-71
2022/10/19 04:43:19;;;;;;;3.03;0.52;;;10.00;99.90;;;;;;5023832;28;20033;-71
2022/10/19 04:45:44;;;;;;;0.43;0.20;;;10.00;99.90;;;;;;5023728;28;20048;-71
2022/10/19 04:48:10;;;;;;;1.10;0.47;;;10.00;99.90;;;;;;5022964;28;20392;-71
2022/10/19 04:50:36;;;;;;;2.28;0.30;;;10.00;99.90;;;;;;5004607;28;20078;-71
2022/10/19 04:53:01;;;;;;;0.10;0.10;;;10.00;99.90;;;;;;5015911;28;20041;-71
2022/10/19 04:55:27;;;;;;;0.45;0.30;;;10.00;99.90;;;;;;5019002;28;20038;-71
2022/10/19 04:57:53;;;;;;;0.77;0.28;;;10.00;99.90;;;;;;5017552;28;20033;-71
2022/10/19 05:00:18;;;;;;;0.63;0.30;;;10.00;99.90;;;;;;5017636;28;20115;-71
2022/10/19 05:02:45;;;;;;;0.80;0.30;;;9.90;99.90;;;;;;5013305;28;20151;-71
2022/10/19 05:05:12;;;;;;;1.05;0.30;;;9.90;99.90;;;;;;5013851;28;20069;-71
2022/10/19 05:07:37;;;;;;;0.52;0.20;;;10.00;99.90;;;;;;5017455;28;20041;-71
2022/10/19 05:10:03;;;;;;;0.47;0.30;;;9.90;99.90;;;;;;5002091;28;20103;-71
2022/10/19 05:12:29;;;;;;;1.20;0.32;;;10.00;99.90;;;;;;4999592;28;20041;-71
2022/10/19 05:14:54;;;;;;;0.70;0.43;;;10.00;99.90;;;;;;4997952;28;20052;-71
2022/10/19 05:17:20;;;;;;;1.33;0.80;;;10.00;99.90;;;;;;5019570;28;20068;-71
2022/10/19 05:19:46;;;;;;;1.05;0.30;;;9.90;99.90;;;;;;5018309;28;20129;-71
2022/10/19 05:22:11;;;;;;;1.10;0.20;;;10.00;99.90;;;;;;5014660;28;20132;-71
2022/10/19 05:24:37;;;;;;;0.85;0.40;;;9.90;99.90;;;;;;5018160;28;20033;-71
2022/10/19 05:27:02;;;;;;;0.20;0.17;;;10.00;99.90;;;;;;5019271;28;20599;-71
2022/10/19 05:29:29;;;;;;;0.75;0.35;;;9.90;99.90;;;;;;5008346;28;20471;-71
2022/10/19 05:31:54;;;;;;;0.88;0.30;;;9.90;99.90;;;;;;5017846;28;20551;-71
2022/10/19 05:34:20;;;;;;;1.02;0.35;;;9.90;99.90;;;;;;5015944;28;20041;-72
2022/10/19 05:36:46;;;;;;;0.63;0.20;;;9.90;99.90;;;;;;5003880;28;20041;-71
2022/10/19 05:39:14;;;;;;;0.98;0.40;;;9.80;99.90;;;;;;5017655;28;20470;-70
2022/10/19 05:41:42;;;;;;;1.98;0.47;;;9.90;99.90;;;;;;5013554;28;20745;-71
2022/10/19 05:44:13;;;;;;;1.95;0.30;;;9.90;99.90;;;;;;5011542;28;20553;-72
2022/10/19 05:46:39;;;;;;;1.88;0.43;;;9.80;99.90;;;;;;5017144;28;20073;-71
2022/10/19 05:49:05;;;;;;;2.15;0.25;;;9.80;99.90;;;;;;5013982;28;20132;-71
2022/10/19 05:51:30;;;;;;;3.20;0.63;;;9.90;99.90;;;;;;5014446;28;20403;-71
2022/10/19 05:53:56;;;;;;;5.50;0.60;;;9.90;99.90;;;;;;5018745;28;20046;-71
2022/10/19 05:56:25;;;;;;;0.95;0.30;;;9.90;99.90;;;;;;5014048;28;20056;-71
2022/10/19 05:58:50;;;;;;;1.60;0.30;;;9.90;99.90;;;;;;5028804;28;20518;-71
2022/10/19 06:01:18;;;;;;;0.30;0.10;;;10.00;99.90;;;;;;5009560;28;20037;-71
2022/10/19 06:03:45;;;;;;;0.43;0.43;;;10.00;99.90;;;;;;5021928;28;20475;-71
2022/10/19 06:06:10;;;;;;;2.35;0.50;;;9.90;99.90;;;;;;5018938;28;20495;-71
2022/10/19 06:08:37;;;;;;;0.25;0.20;;;10.00;99.90;;;;;;5011664;28;20053;-71
2022/10/19 06:11:25;;;;;;;1.65;0.47;;;10.00;99.90;;;;;;5013029;28;20049;-71
2022/10/19 06:13:54;;;;;;;0.20;0.20;;;10.00;99.90;;;;;;5003530;28;20110;-71
2022/10/19 06:16:20;;;;;;;0.45;0.25;;;10.00;99.90;;;;;;4999668;28;20127;-69
2022/10/19 06:18:46;;;;;;;0.75;0.50;;;10.00;99.90;;;;;;4995940;28;20034;-71
2022/10/19 06:21:14;;;;;;;1.65;0.40;;;10.10;99.90;;;;;;5016391;28;20052;-71
2022/10/19 06:23:41;;;;;;;0.98;0.30;;;10.00;99.90;;;;;;5030746;28;20145;-71
2022/10/19 06:26:09;;;;;;;5.78;0.30;;;10.00;99.90;;;;;;5020261;28;20044;-71
2022/10/19 06:28:36;;;;;;;2.60;0.38;;;10.00;99.90;;;;;;5023654;28;20038;-70
2022/10/19 06:31:02;;;;;;;1.15;0.30;;;10.10;99.90;;;;;;5022533;28;20678;-70
2022/10/19 06:33:29;;;;;;;0.65;0.47;;;10.10;99.90;;;;;;5022831;28;20033;-70
2022/10/19 06:35:54;;;;;;;0.57;0.17;;;10.10;99.90;;;;;;5022076;28;20085;-71
2022/10/19 06:38:20;;;;;;;0.35;0.20;;;10.10;99.90;;;;;;5023396;28;20072;-71
2022/10/19 06:40:47;;;;;;;1.63;0.35;;;10.10;99.90;;;;;;5021955;28;20041;-71
2022/10/19 06:43:14;;;;;;;1.30;0.30;;;10.10;99.90;;;;;;5022655;28;20462;-70
2022/10/19 06:45:39;;;;;;;5.00;0.60;;;10.10;99.90;;;;;;5021086;28;20066;-71
2022/10/19 06:48:05;;;;;;;1.20;0.38;;;10.10;99.90;;;;;;5020603;28;20041;-71
2022/10/19 06:50:31;;;;;;;0.10;0.10;;;10.20;99.90;;;;;;5021006;28;20037;-71
2022/10/19 06:52:58;;;;;;;1.05;0.40;;;10.20;99.90;;;;;;5019909;28;20092;-71
2022/10/19 06:55:24;;;;;;;2.30;0.52;;;10.20;99.90;;;;;;4995237;28;20033;-71
2022/10/19 06:57:50;;;;;;;1.13;0.30;;;10.20;99.90;;;;;;5017798;28;20092;-71
2022/10/19 07:00:16;;;;;;;0.77;0.28;;;10.20;99.90;;;;;;5021211;28;20065;-71
2022/10/19 07:02:42;;;;;;;1.52;0.60;;;10.30;99.90;;;;;;5001557;28;20049;-71
2022/10/19 07:05:07;;;;;;;2.03;0.40;;;10.30;99.90;;;;;;5018141;28;20808;-71
2022/10/19 07:07:33;;;;;;;0.57;0.17;;;10.30;99.90;;;;;;5019737;28;20037;-71
2022/10/19 07:09:59;;;;;;;0.10;0.10;;;10.30;99.90;;;;;;5018377;28;20058;-71
2022/10/19 07:12:24;;;;;;;2.17;0.50;;;10.40;99.90;;;;;;5019518;28;20044;-71
2022/10/19 07:14:51;;;;;;;1.25;0.30;;;10.40;99.90;;;;;;5024875;28;20087;-71
2022/10/19 07:17:16;;;;;;;0.38;0.20;;;10.40;99.90;;;;;;5022439;28;20045;-71
2022/10/19 07:19:42;;;;;;;1.65;0.30;;;10.40;99.90;;;;;;5019271;28;20041;-71
2022/10/19 07:22:07;;;;;;;0.43;0.30;;;10.40;99.90;;;;;;5020839;28;20521;-71
2022/10/19 07:24:33;;;;;;;1.75;0.20;;;10.50;99.90;;;;;;5025506;28;20487;-71
2022/10/19 07:26:59;;;;;;;0.73;0.20;;;10.50;99.90;;;;;;5007185;28;20495;-71
2022/10/19 07:29:24;;;;;;;2.20;0.30;;;10.50;99.90;;;;;;5024296;28;20041;-70
2022/10/19 07:31:50;;;;;;;4.82;0.47;;;10.60;99.90;;;;;;5025945;28;20029;-71
2022/10/19 07:34:15;;;;;;;2.67;0.45;;;10.60;99.90;;;;;;5025515;28;20120;-71
2022/10/19 07:36:44;;;;;;;3.55;0.52;;;10.70;99.90;;;;;;5025755;28;20163;-71
2022/10/19 07:39:11;;;;;;;1.85;0.20;;;10.70;99.90;;;;;;5024651;28;20041;-71
2022/10/19 07:41:38;;;;;;;3.05;0.45;;;10.70;99.90;;;;;;5023260;28;20076;-71
2022/10/19 07:44:04;;;;;;;1.27;0.32;;;10.70;99.90;;;;;;5024977;28;20106;-71
2022/10/19 07:46:35;;;;;;;0.75;0.32;;;10.70;99.90;;;;;;5022613;28;20059;-71
2022/10/19 07:49:05;;;;;;;3.28;0.40;;;10.80;99.90;;;;;;5026520;28;20069;-71
2022/10/19 07:51:30;;;;;;;1.08;0.28;;;10.80;99.90;;;;;;5023116;28;20116;-71
2022/10/19 07:53:59;;;;;;;0.90;0.17;;;10.80;99.90;;;;;;5023747;28;20128;-71
2022/10/19 07:56:26;;;;;;;2.30;0.90;;;10.90;99.90;;;;;;5023424;28;20041;-70
2022/10/19 07:58:54;;;;;;;1.40;0.57;;;10.90;99.90;;;;;;5020947;28;20041;-71
2022/10/19 08:01:23;;;;;;;3.30;0.65;;;10.90;99.90;;;;;;5023800;28;20048;-71
2022/10/19 08:03:51;;;;;;;0.52;0.17;;;11.00;99.90;;;;;;5021748;28;20041;-71
2022/10/19 08:06:20;;;;;;;0.20;0.10;;;11.00;99.90;;;;;;5021681;28;20048;-71
2022/10/19 08:08:47;;;;;;;0.38;0.10;;;11.00;99.90;;;;;;5009194;28;20050;-71
2022/10/19 08:11:21;;;;;;;0.90;0.20;;;11.00;99.90;;;;;;5024678;28;20120;-71
2022/10/19 08:13:46;;;;;;;2.88;0.70;;;11.00;99.90;;;;;;5019906;28;20121;-71
2022/10/19 08:16:25;;;;;;;1.00;0.30;;;11.10;99.90;;;;;;5022951;28;20496;-71
2022/10/19 08:18:52;;;;;;;11.57;1.02;;;11.10;99.90;;;;;;5023871;28;20048;-71
2022/10/19 08:21:18;;;;;;;2.47;0.30;;;11.10;99.90;;;;;;5018840;28;20206;-71
2022/10/19 08:23:43;;;;;;;0.50;0.35;;;11.20;99.90;;;;;;5019953;28;20061;-70
2022/10/19 08:26:09;;;;;;;1.58;0.35;;;11.20;99.90;;;;;;5022976;28;20037;-71
2022/10/19 08:28:35;;;;;;;4.03;0.38;;;11.30;99.90;;;;;;5020907;28;20130;-71
2022/10/19 08:31:19;;;;;;;3.75;0.30;;;11.30;99.90;;;;;;5019638;28;20037;-71
2022/10/19 08:33:45;;;;;;;0.13;0.10;;;11.30;99.90;;;;;;5018918;28;20029;-71
2022/10/19 08:36:12;;;;;;;4.35;0.30;;;11.30;99.90;;;;;;5018747;28;20350;-71
2022/10/19 08:38:39;;;;;;;1.85;0.35;;;11.40;99.90;;;;;;5020740;28;20041;-71
2022/10/19 08:41:28;;;;;;;2.42;0.40;;;11.40;99.90;;;;;;5001386;28;20394;-71
2022/10/19 08:44:13;;;;;;;0.70;0.35;;;11.40;99.90;;;;;;5021976;28;20526;-71
2022/10/19 08:47:02;;;;;;;0.52;0.25;;;11.50;99.90;;;;;;4999762;28;20038;-71
2022/10/19 08:49:30;;;;;;;2.13;0.45;;;11.50;99.90;;;;;;5019656;28;20163;-71
2022/10/19 08:52:09;;;;;;;2.53;0.35;;;11.50;99.90;;;;;;5016219;28;20539;-71
2022/10/19 08:55:04;;;;;;;4.68;0.52;;;11.50;99.90;;;;;;5021973;28;20045;-71
2022/10/19 08:58:02;;;;;;;4.68;0.68;;;11.60;99.90;;;;;;5021825;28;20056;-71
2022/10/19 09:00:42;;;;;;;1.17;0.30;;;11.60;99.90;;;;;;5020986;28;20045;-71
2022/10/19 09:03:34;;;;;;;3.10;0.43;;;11.60;99.90;;;;;;5020437;28;20292;-71
2022/10/19 09:06:25;;;;;;;2.45;0.40;;;11.70;99.90;;;;;;5019243;28;20484;-71
2022/10/19 09:08:54;;;;;;;7.13;0.50;;;11.70;99.90;;;;;;5020852;28;21172;-71
2022/10/19 09:11:34;;;;;;;1.95;0.32;;;11.70;99.90;;;;;;5018577;28;20049;-71
2022/10/19 09:14:17;;;;;;;3.53;0.52;;;11.70;99.90;;;;;;5023763;28;20398;-71
2022/10/19 09:16:42;;;;;;;0.22;0.17;;;11.80;99.90;;;;;;5022131;28;20076;-71
2022/10/19 09:19:20;;;;;;;1.38;0.25;;;11.80;99.90;;;;;;5020164;28;20395;-71
2022/10/19 09:21:50;;;;;;;2.40;0.38;;;11.80;99.90;;;;;;5020654;28;20038;-71
2022/10/19 09:24:27;;;;;;;0.82;0.30;;;11.80;99.90;;;;;;5019684;28;20042;-71
2022/10/19 09:26:57;;;;;;;1.35;0.50;;;11.80;99.90;;;;;;5021213;28;20183;-71
2022/10/19 09:29:37;;;;;;;0.73;0.50;;;11.90;99.90;;;;;;5034285;28;20045;-71
2022/10/19 09:32:19;;;;;;;3.60;0.60;;;11.90;99.90;;;;;;5023603;28;20049;-71
2022/10/19 09:34:59;;;;;;;2.55;0.40;;;11.90;99.90;;;;;;5023083;28;20044;-71
2022/10/19 09:37:25;;;;;;;1.83;0.70;;;11.90;99.90;;;;;;5023481;28;20053;-71
2022/10/19 09:39:52;;;;;;;4.43;0.50;;;11.90;99.90;;;;;;5022784;28;20044;-71
2022/10/19 09:42:29;;;;;;;0.82;0.30;;;12.00;99.90;;;;;;5019366;28;20045;-71
2022/10/19 09:44:57;;;;;;;0.47;0.30;;;12.00;99.90;;;;;;5017198;28;20434;-71
2022/10/19 09:47:31;;;;;;;5.78;0.45;;;12.00;99.90;;;;;;5022979;28;20119;-71
2022/10/19 09:50:22;;;;;;;0.47;0.22;;;12.00;99.90;;;;;;5019200;28;20037;-71
2022/10/19 09:52:51;;;;;;;1.08;0.30;;;12.00;99.90;;;;;;5022690;28;20049;-71
2022/10/19 09:55:25;;;;;;;1.13;0.40;;;12.00;99.90;;;;;;5019776;28;20038;-71
2022/10/19 09:58:00;;;;;;;0.63;0.32;;;12.10;99.90;;;;;;5017259;28;20577;-72
2022/10/19 10:00:33;;;;;;;1.87;0.40;;;12.10;99.90;;;;;;5014760;28;20065;-71
2022/10/19 10:02:59;;;;;;;1.08;0.22;;;12.20;99.90;;;;;;5020401;28;20048;-71
2022/10/19 10:05:37;;;;;;;3.67;0.50;;;12.20;99.90;;;;;;5017019;28;20619;-71
2022/10/19 10:08:15;;;;;;;0.60;0.30;;;12.20;99.90;;;;;;5019717;28;20124;-71
2022/10/19 10:10:55;;;;;;;1.85;0.45;;;12.20;99.90;;;;;;5018358;28;20038;-71
2022/10/19 10:13:24;;;;;;;3.05;0.47;;;12.30;99.90;;;;;;5003617;28;20120;-71
2022/10/19 10:16:02;;;;;;;1.10;0.20;;;12.20;99.90;;;;;;5020304;28;20041;-71
2022/10/19 10:18:28;;;;;;;2.22;0.30;;;12.20;99.90;;;;;;4999648;28;20042;-71
2022/10/19 10:21:05;;;;;;;1.13;0.30;;;12.20;99.90;;;;;;5020676;28;20045;-71
2022/10/19 10:23:35;;;;;;;0.65;0.20;;;12.30;99.90;;;;;;5027005;28;20137;-71
2022/10/19 10:26:01;;;;;;;1.65;0.20;;;12.30;99.90;;;;;;5014977;28;20063;-71
2022/10/19 10:28:28;;;;;;;10.23;0.57;;;12.30;99.90;;;;;;5021227;28;20057;-71
2022/10/19 10:31:03;;;;;;;0.50;0.20;;;12.40;99.90;;;;;;5019497;28;20080;-71
2022/10/19 10:33:31;;;;;;;3.40;0.60;;;12.30;99.90;;;;;;5016247;28;20049;-72
2022/10/19 10:36:03;;;;;;;3.40;0.50;;;12.40;99.90;;;;;;5015653;28;20053;-71
2022/10/19 10:38:37;;;;;;;1.95;0.30;;;12.40;99.90;;;;;;5015324;28;20407;-71
2022/10/19 10:41:15;;;;;;;3.05;0.65;;;12.40;99.90;;;;;;5019884;28;20399;-72
2022/10/19 10:44:05;;;;;;;0.40;0.40;;;12.50;99.90;;;;;;5016069;28;20403;-71
2022/10/19 10:46:38;;;;;;;0.10;0.00;;;12.50;99.90;;;;;;5019243;28;20506;-72
2022/10/19 10:49:06;;;;;;;4.38;0.30;;;12.50;99.90;;;;;;5015286;28;20033;-71
2022/10/19 10:51:37;;;;;;;0.60;0.22;;;12.50;99.90;;;;;;5017504;28;20042;-71
2022/10/19 10:54:16;;;;;;;2.65;0.52;;;12.60;99.90;;;;;;5031196;28;20040;-71
2022/10/19 10:56:53;;;;;;;0.60;0.30;;;12.50;99.90;;;;;;5018466;28;20120;-71
2022/10/19 10:59:25;;;;;;;0.45;0.30;;;12.60;99.90;;;;;;5016058;28;20033;-71
2022/10/19 11:02:13;;;;;;;1.65;0.40;;;12.60;99.90;;;;;;5016210;28;20049;-71
2022/10/19 11:04:45;;;;;;;2.22;0.40;;;12.60;99.90;;;;;;5024733;28;20050;-71
2022/10/19 11:07:20;;;;;;;1.30;0.30;;;12.60;99.90;;;;;;5019022;28;20128;-71
2022/10/19 11:09:52;;;;;;;1.15;0.20;;;12.60;99.90;;;;;;5024952;28;20041;-71
2022/10/19 11:12:26;;;;;;;3.83;0.55;;;12.60;99.90;;;;;;5019200;28;20044;-71
2022/10/19 11:15:00;;;;;;;2.65;0.60;;;12.60;99.90;;;;;;5012917;28;20132;-71
2022/10/19 11:17:29;;;;;;;3.30;0.80;;;12.60;99.90;;;;;;5019398;28;20041;-71
2022/10/19 11:19:54;;;;;;;1.48;0.82;;;12.60;99.90;;;;;;5021673;28;20514;-71
2022/10/19 11:22:42;;;;;;;0.25;0.20;;;12.70;99.90;;;;;;5022425;28;20033;-71
2022/10/19 11:25:13;;;;;;;0.77;0.50;;;12.70;99.90;;;;;;5023658;28;20033;-71
2022/10/19 11:28:01;;;;;;;1.05;0.60;;;12.70;99.90;;;;;;5035650;28;20050;-71
2022/10/19 11:30:32;;;;;;;1.00;0.50;;;12.80;99.90;;;;;;4997442;28;20045;-71
2022/10/19 11:33:08;;;;;;;1.33;0.40;;;12.80;99.90;;;;;;5018755;28;20049;-71
2022/10/19 11:35:57;;;;;;;0.77;0.35;;;12.80;99.90;;;;;;5024577;28;20578;-71
2022/10/19 11:38:41;;;;;;;0.63;0.50;;;12.80;99.90;;;;;;5019706;28;20053;-71
2022/10/19 11:41:09;;;;;;;0.88;0.35;;;12.80;99.90;;;;;;5017616;28;20037;-71
2022/10/19 11:43:44;;;;;;;2.22;0.93;;;12.80;99.90;;;;;;5022030;28;20087;-71
2022/10/19 11:46:13;;;;;;;1.00;0.60;;;12.80;99.90;;;;;;5023206;28;20034;-71
2022/10/19 11:49:08;;;;;;;0.90;0.47;;;12.80;99.90;;;;;;5019623;28;20033;-71
2022/10/19 11:52:03;;;;;;;0.75;0.20;;;12.80;99.90;;;;;;5022134;28;20056;-71
2022/10/19 11:54:55;;;;;;;5.00;0.45;;;12.80;99.90;;;;;;5020263;28;20091;-71
2022/10/19 11:57:31;;;;;;;0.70;0.30;;;12.80;99.90;;;;;;5020902;28;20136;-71
2022/10/19 12:00:15;;;;;;;0.60;0.30;;;12.80;99.90;;;;;;5020912;28;20041;-71
2022/10/19 12:03:22;;;;;;;2.95;0.35;;;12.80;99.90;;;;;;5022732;28;20041;-71
2022/10/19 12:06:18;;;;;;;0.65;0.38;;;12.90;99.90;;;;;;5007580;28;20450;-71
2022/10/19 12:09:07;;;;;;;0.77;0.20;;;12.90;99.90;;;;;;4997698;28;20107;-71
2022/10/19 12:11:59;;;;;;;0.73;0.20;;;12.80;99.90;;;;;;5015386;28;20068;-71
2022/10/19 12:14:33;;;;;;;0.30;0.20;;;12.90;99.90;;;;;;5020126;28;20033;-72
2022/10/19 12:17:06;;;;;;;0.22;0.10;;;12.90;99.90;;;;;;5018421;28;20045;-71
2022/10/19 12:19:39;;;;;;;5.05;0.43;;;12.90;99.90;;;;;;5019075;28;20033;-71
2022/10/19 12:22:09;;;;;;;0.90;0.38;;;12.90;99.90;;;;;;5000805;28;20120;-71
2022/10/19 12:24:35;;;;;;;1.88;0.30;;;12.90;99.90;;;;;;5035844;28;20076;-71
2022/10/19 12:27:01;;;;;;;0.52;0.20;;;13.00;99.90;;;;;;5021275;28;20562;-71
2022/10/19 12:29:31;;;;;;;1.05;0.22;;;12.90;99.90;;;;;;5019438;28;20545;-71
2022/10/19 12:31:59;;;;;;;1.00;0.40;;;13.00;99.90;;;;;;4998230;28;20510;-71
2022/10/19 12:34:48;;;;;;;1.75;0.28;;;13.00;99.90;;;;;;5018438;28;20029;-71
2022/10/19 12:37:27;;;;;;;4.47;0.40;;;13.00;99.90;;;;;;5022502;28;20037;-71
2022/10/19 12:40:04;;;;;;;0.43;0.10;;;13.00;99.90;;;;;;5020004;28;20120;-71
2022/10/19 12:42:52;;;;;;;2.38;0.28;;;13.00;99.90;;;;;;5019255;28;20033;-71
2022/10/19 12:45:25;;;;;;;3.35;0.20;;;13.00;99.90;;;;;;5020692;28;20048;-71
2022/10/19 12:48:11;;;;;;;0.47;0.13;;;13.10;99.90;;;;;;5021511;28;20077;-71
2022/10/19 12:50:51;;;;;;;1.60;0.30;;;13.10;99.90;;;;;;5021784;28;20450;-71
2022/10/19 12:53:37;;;;;;;1.52;0.40;;;13.10;99.90;;;;;;5016195;28;20111;-71
2022/10/19 12:56:08;;;;;;;;;;;13.10;99.90;;;;;;5021817;28;20049;-71
2022/10/19 12:58:43;;;;;;;0.35;0.15;;;13.10;99.90;;;;;;5021364;28;19994;-71
2022/10/19 13:01:27;;;;;;;0.60;0.25;;;13.10;99.90;;;;;;5040818;28;20065;-71
2022/10/19 13:04:33;;;;;;;0.32;0.28;;;13.10;99.90;;;;;;5022911;28;20068;-71
2022/10/19 13:07:02;;;;;;;2.10;0.50;;;13.10;99.90;;;;;;5020160;28;20054;-71
2022/10/19 13:09:39;;;;;;;1.23;0.50;;;13.10;99.90;;;;;;5019633;28;20300;-71
2022/10/19 13:14:50;;;;;;;0.70;0.40;;;13.20;99.90;;;;;;5021759;28;20120;-71